INFORMAÇÕES METEOROLÓGICAS
METAR FOR SBAF
ADDS - METARS form results

(2130 UTC 16 June 2019)
Data provider http://aviationweather.gov/metar/data/
 
METAR text: SBAF 162100Z 21004KT 8000 NSC 26/21 Q1021
Conditions at: SBAF (AFONSOS ARPT (MI, BR) observed 2100 UTC 16 June 2019
Temperature: 26.0°C (79°F)
Dewpoint: 21.0°C (70°F) [RH = 74%]
Pressure (altimeter): 30.15 inches Hg (1021.0 mb)
Winds: from the SSW (210 degrees) at 5 MPH (4 knots; 2.1 m/s)
Visibility: 5 miles ( 8 km)
Ceiling: at least 12,000 feet AGL
Clouds: sky clear below 12,000 feet AGL
Weather: no significant weather observed at this time

 MAPA DO AEROPORTO

 INFORMAÇÕES DA PISTA
Pista 8 Tamanho da pista 6565 ft Largura da pista 171 ft
Elevação da pista 0 ft Ranhura da pista 0 ft Proa da pista 0
Pista 26 Tamanho da pista 6565 ft Largura da pista 171 ft
Elevação da pista 0 ft Ranhura da pista 0 ft Proa da pista 0

 FREQUÊNCIAS DO AEROPORTO
Tipo APP Nome RIO APP Frequência 119.35 MHZ
Tipo GND Nome AFONSOS Frequência 121.85 MHZ
Tipo TWR Nome AFONSOS TW Frequência 118.9 MHZ

 AUXÍLIOS DE NAVEGAÇÃO PRÓXIMOS AO AEROPORTO
Tipo NDB Nome Afonsos Frequência 270 KHZ



Powered by Mercosul Lnhas Aereas